Aviation Digital Data Service (ADDS)

Output produced by METARs form (1815 UTC 20 January 2019)
found at http://www.aviationweather.gov/metar/data/
 
ORMM 201800Z 27006KT CAVOK 08/03 Q1025 NOSIG
TAF ORMM 201600Z 2018/2118 32008KT CAVOK 
     TEMPO 2103/2107 5000 BR NSC 
     BECMG 2116/2118 01005KT